createdAt,value
2018-05-27T00:00:55.023Z,99.90
2018-05-27T00:03:22.554Z,99.90
2018-05-27T00:05:50.071Z,99.90
2018-05-27T00:08:17.607Z,99.90
2018-05-27T00:10:45.125Z,99.90
2018-05-27T00:13:12.666Z,99.90
2018-05-27T00:15:40.186Z,99.90
2018-05-27T00:18:07.726Z,99.90
2018-05-27T00:20:35.258Z,99.90
2018-05-27T00:23:03.542Z,99.90
2018-05-27T00:25:31.840Z,99.90
2018-05-27T00:27:59.350Z,99.90
2018-05-27T00:30:26.879Z,99.90
2018-05-27T00:32:54.386Z,99.90
2018-05-27T00:35:22.686Z,99.90
2018-05-27T00:37:50.198Z,99.90
2018-05-27T00:40:17.735Z,99.90
2018-05-27T00:42:45.242Z,99.90
2018-05-27T00:45:12.782Z,99.90
2018-05-27T00:47:41.099Z,99.90
2018-05-27T00:50:08.635Z,99.90
2018-05-27T00:52:36.151Z,99.90
2018-05-27T00:55:03.698Z,99.90
2018-05-27T00:57:31.210Z,99.90
2018-05-27T00:59:58.741Z,99.90
2018-05-27T01:02:27.030Z,99.90
2018-05-27T01:04:54.558Z,99.90
2018-05-27T01:07:22.846Z,99.90
2018-05-27T01:09:50.374Z,99.90
2018-05-27T01:12:17.884Z,99.90
2018-05-27T01:14:45.418Z,99.90
2018-05-27T01:17:12.934Z,99.90
2018-05-27T01:19:40.462Z,99.90
2018-05-27T01:22:07.980Z,99.90
2018-05-27T01:24:35.509Z,99.90
2018-05-27T01:27:03.023Z,99.90
2018-05-27T01:29:30.551Z,99.90
2018-05-27T01:31:58.825Z,99.90
2018-05-27T01:34:27.126Z,99.90
2018-05-27T01:36:54.630Z,99.90
2018-05-27T01:39:22.166Z,99.90
2018-05-27T01:41:49.678Z,99.90
2018-05-27T01:44:17.211Z,99.90
2018-05-27T01:46:45.491Z,99.90
2018-05-27T01:49:13.022Z,99.90
2018-05-27T01:51:40.534Z,99.90
2018-05-27T01:54:08.089Z,99.90
2018-05-27T01:56:35.594Z,99.90
2018-05-27T01:59:03.133Z,99.90
2018-05-27T02:01:30.689Z,99.90
2018-05-27T02:03:58.235Z,99.90
2018-05-27T02:06:25.751Z,99.90
2018-05-27T02:08:53.289Z,99.90
2018-05-27T02:11:21.571Z,99.90
2018-05-27T02:13:49.867Z,99.90
2018-05-27T02:16:17.405Z,99.90
2018-05-27T02:18:45.679Z,99.90
2018-05-27T02:21:13.982Z,99.90
2018-05-27T02:23:41.515Z,99.90
2018-05-27T02:26:09.054Z,99.90
2018-05-27T02:28:37.338Z,99.90
2018-05-27T02:31:04.866Z,99.90
2018-05-27T02:33:32.383Z,99.90
2018-05-27T02:35:59.920Z,99.90
2018-05-27T02:38:27.444Z,99.90
2018-05-27T02:40:54.987Z,99.90
2018-05-27T02:43:22.505Z,99.90
2018-05-27T02:45:50.037Z,99.90
2018-05-27T02:48:17.554Z,99.90
2018-05-27T02:50:45.095Z,99.90
2018-05-27T02:53:12.606Z,99.90
2018-05-27T02:55:40.139Z,99.90
2018-05-27T02:58:07.647Z,99.90
2018-05-27T03:00:35.185Z,99.90
2018-05-27T03:03:02.696Z,99.90
2018-05-27T03:05:30.234Z,99.90
2018-05-27T03:07:57.742Z,99.90
2018-05-27T03:10:25.279Z,99.90
2018-05-27T03:12:53.558Z,99.90
2018-05-27T03:15:21.857Z,99.90
2018-05-27T03:17:49.387Z,99.90
2018-05-27T03:20:17.684Z,99.90
2018-05-27T03:22:45.204Z,99.90
2018-05-27T03:25:12.737Z,99.90
2018-05-27T03:27:40.242Z,99.90
2018-05-27T03:30:08.550Z,99.90
2018-05-27T03:32:36.065Z,99.90
2018-05-27T03:35:04.371Z,99.90
2018-05-27T03:37:31.889Z,99.90
2018-05-27T03:40:00.190Z,99.90
2018-05-27T03:42:27.702Z,99.90
2018-05-27T03:44:55.240Z,99.90
2018-05-27T03:47:22.754Z,99.90
2018-05-27T03:49:50.285Z,99.90
2018-05-27T03:52:18.563Z,99.90
2018-05-27T03:54:46.871Z,99.90
2018-05-27T03:57:14.374Z,99.90
2018-05-27T03:59:41.902Z,99.90
2018-05-27T04:02:09.415Z,99.90
2018-05-27T04:04:59.142Z,99.90
2018-05-27T04:07:38.611Z,99.90
2018-05-27T04:10:06.911Z,99.90
2018-05-27T04:12:34.426Z,99.90
2018-05-27T04:15:01.962Z,99.90
2018-05-27T04:17:29.473Z,99.90
2018-05-27T04:19:57.010Z,99.90
2018-05-27T04:22:25.303Z,99.90
2018-05-27T04:24:52.850Z,99.90
2018-05-27T04:27:21.126Z,99.90
2018-05-27T04:29:49.431Z,99.90
2018-05-27T04:32:16.954Z,99.90
2018-05-27T04:34:45.246Z,99.90
2018-05-27T04:37:12.758Z,99.90
2018-05-27T04:39:40.297Z,99.90
2018-05-27T04:42:07.807Z,99.90
2018-05-27T04:44:35.326Z,99.90
2018-05-27T04:47:02.861Z,99.90
2018-05-27T04:49:30.386Z,99.90
2018-05-27T04:51:57.913Z,99.90
2018-05-27T04:54:26.193Z,99.90
2018-05-27T04:56:54.494Z,99.90
2018-05-27T04:59:22.012Z,99.90
2018-05-27T05:01:50.890Z,99.90
2018-05-27T05:04:18.400Z,99.90
2018-05-27T05:06:45.960Z,99.90
2018-05-27T05:09:13.470Z,99.90
2018-05-27T05:11:41.006Z,99.90
2018-05-27T05:14:08.514Z,99.90
2018-05-27T05:16:36.045Z,99.90
2018-05-27T05:19:04.346Z,99.90
2018-05-27T05:21:31.874Z,99.90
2018-05-27T05:24:00.141Z,99.90
2018-05-27T05:26:27.686Z,99.90
2018-05-27T05:28:55.197Z,99.90
2018-05-27T05:31:22.729Z,99.90
2018-05-27T05:33:51.005Z,99.90
2018-05-27T05:36:18.547Z,99.90
2018-05-27T05:38:47.238Z,99.90
2018-05-27T05:41:16.176Z,99.90
2018-05-27T05:43:45.105Z,99.90
2018-05-27T05:46:13.242Z,99.90
2018-05-27T05:48:41.156Z,99.90
2018-05-27T05:51:09.191Z,99.90
2018-05-27T05:53:38.501Z,99.90
2018-05-27T05:56:07.958Z,99.90
2018-05-27T05:58:36.050Z,99.90
2018-05-27T06:01:03.633Z,99.90
2018-05-27T06:03:31.936Z,99.90
2018-05-27T06:05:59.457Z,99.90
2018-05-27T06:08:26.966Z,99.90
2018-05-27T06:10:54.497Z,99.90
2018-05-27T06:13:22.773Z,99.90
2018-05-27T06:15:50.314Z,99.90
2018-05-27T06:18:18.589Z,99.90
2018-05-27T06:20:46.097Z,99.90
2018-05-27T06:23:13.626Z,99.90
2018-05-27T06:25:41.173Z,99.90
2018-05-27T06:28:08.674Z,99.90
2018-05-27T06:30:36.182Z,99.90
2018-05-27T06:33:03.710Z,99.90
2018-05-27T06:35:31.221Z,99.90
2018-05-27T06:37:58.759Z,99.90
2018-05-27T06:40:26.268Z,99.90
2018-05-27T06:42:53.802Z,99.90
2018-05-27T06:45:21.305Z,99.90
2018-05-27T06:47:48.847Z,99.90
2018-05-27T06:50:16.354Z,99.90
2018-05-27T06:52:43.966Z,99.90
2018-05-27T06:55:11.474Z,99.90
2018-05-27T06:57:39.010Z,99.90
2018-05-27T07:00:06.518Z,99.90
2018-05-27T07:02:34.147Z,99.90
2018-05-27T07:05:01.653Z,99.90
2018-05-27T07:07:29.951Z,99.90
2018-05-27T07:09:57.461Z,99.90
2018-05-27T07:12:24.998Z,99.90
2018-05-27T07:14:52.588Z,99.90
2018-05-27T07:17:20.117Z,99.90
2018-05-27T07:19:47.623Z,99.90
2018-05-27T07:22:15.146Z,99.90
2018-05-27T07:24:42.679Z,99.90
2018-05-27T07:27:10.195Z,99.90
2018-05-27T07:29:37.722Z,99.90
2018-05-27T07:32:05.241Z,99.90
2018-05-27T07:34:32.778Z,99.90
2018-05-27T07:37:00.294Z,99.90
2018-05-27T07:39:27.826Z,99.90
2018-05-27T07:41:55.362Z,99.90
2018-05-27T07:44:22.893Z,99.90
2018-05-27T07:46:50.406Z,99.90
2018-05-27T07:49:17.986Z,99.90
2018-05-27T07:51:45.513Z,99.90
2018-05-27T07:54:13.046Z,99.90
2018-05-27T07:56:40.554Z,99.90
2018-05-27T07:59:08.850Z,99.90
2018-05-27T08:01:36.360Z,99.90
2018-05-27T08:04:03.928Z,99.90
2018-05-27T08:06:31.454Z,99.90
2018-05-27T08:08:59.006Z,99.90
2018-05-27T08:11:26.519Z,99.90
2018-05-27T08:13:54.819Z,99.90
2018-05-27T08:16:22.334Z,99.90
2018-05-27T08:18:49.847Z,99.90
2018-05-27T08:21:17.378Z,99.90
2018-05-27T08:23:44.891Z,99.90
2018-05-27T08:26:12.424Z,99.90
2018-05-27T08:28:39.933Z,99.50
2018-05-27T08:31:07.465Z,99.20
2018-05-27T08:33:34.980Z,99.00
2018-05-27T08:36:02.519Z,99.90
2018-05-27T08:38:30.032Z,99.50
2018-05-27T08:40:57.563Z,99.10
2018-05-27T08:43:25.082Z,98.80
2018-05-27T08:45:52.642Z,99.70
2018-05-27T08:48:20.159Z,97.40
2018-05-27T08:50:47.691Z,98.10
2018-05-27T08:53:15.210Z,98.00
2018-05-27T08:55:42.751Z,97.50
2018-05-27T08:58:10.488Z,97.80
2018-05-27T09:00:38.014Z,98.50
2018-05-27T09:03:05.518Z,97.00
2018-05-27T09:05:33.809Z,97.30
2018-05-27T09:08:01.314Z,97.30
2018-05-27T09:10:28.846Z,98.40
2018-05-27T09:12:56.370Z,98.40
2018-05-27T09:15:23.948Z,97.30
2018-05-27T09:17:51.439Z,95.40
2018-05-27T09:20:18.971Z,96.20
2018-05-27T09:22:46.482Z,94.80
2018-05-27T09:25:14.780Z,93.20
2018-05-27T09:27:42.290Z,93.20
2018-05-27T09:30:09.938Z,93.20
2018-05-27T09:32:37.446Z,93.00
2018-05-27T09:35:05.005Z,93.70
2018-05-27T09:37:32.533Z,93.30
2018-05-27T09:40:00.809Z,93.50
2018-05-27T09:42:29.109Z,94.20
2018-05-27T09:44:56.621Z,94.10
2018-05-27T09:47:24.157Z,93.20
2018-05-27T09:49:51.670Z,93.60
2018-05-27T09:52:19.205Z,92.70
2018-05-27T09:54:47.478Z,92.60
2018-05-27T09:57:15.778Z,92.20
2018-05-27T09:59:43.291Z,92.30
2018-05-27T10:02:11.607Z,86.60
2018-05-27T10:04:39.118Z,86.50
2018-05-27T10:07:06.650Z,87.10
2018-05-27T10:09:34.165Z,84.30
2018-05-27T10:12:02.461Z,85.30
2018-05-27T10:14:29.975Z,85.20
2018-05-27T10:16:57.507Z,79.30
2018-05-27T10:19:25.023Z,78.80
2018-05-27T10:21:52.609Z,78.20
2018-05-27T10:24:20.120Z,78.50
2018-05-27T10:26:47.657Z,76.70
2018-05-27T10:29:15.163Z,76.80
2018-05-27T10:31:42.691Z,76.50
2018-05-27T10:34:10.207Z,76.00
2018-05-27T10:36:37.733Z,73.90
2018-05-27T10:39:06.046Z,74.10
2018-05-27T10:41:33.608Z,74.90
2018-05-27T10:44:01.117Z,74.90
2018-05-27T10:46:28.647Z,71.80
2018-05-27T10:48:56.919Z,71.70
2018-05-27T10:51:25.215Z,70.30
2018-05-27T10:53:52.726Z,70.30
2018-05-27T10:56:20.277Z,68.00
2018-05-27T10:58:47.781Z,69.40
2018-05-27T11:01:15.313Z,70.40
2018-05-27T11:03:43.592Z,77.10
2018-05-27T11:06:11.121Z,77.10
2018-05-27T11:08:38.630Z,73.70
2018-05-27T11:11:06.135Z,70.50
2018-05-27T11:13:33.668Z,70.30
2018-05-27T11:16:01.170Z,72.80
2018-05-27T11:18:28.721Z,68.90
2018-05-27T11:20:56.990Z,68.80
2018-05-27T11:23:25.288Z,70.30
2018-05-27T11:25:52.822Z,70.20
2018-05-27T11:28:20.350Z,68.70
2018-05-27T11:30:47.866Z,68.10
2018-05-27T11:33:15.401Z,65.60
2018-05-27T11:35:43.694Z,63.70
2018-05-27T11:38:11.271Z,63.70
2018-05-27T11:40:38.795Z,68.10
2018-05-27T11:43:06.394Z,66.10
2018-05-27T11:45:33.905Z,63.10
2018-05-27T11:48:01.440Z,64.00
2018-05-27T11:50:28.954Z,65.70
2018-05-27T11:52:56.501Z,65.20
2018-05-27T11:55:24.026Z,64.80
2018-05-27T11:57:52.321Z,61.90
2018-05-27T12:00:19.832Z,61.90
2018-05-27T12:02:47.372Z,61.30
2018-05-27T12:05:14.882Z,59.60
2018-05-27T12:07:42.420Z,62.60
2018-05-27T12:10:10.711Z,61.20
2018-05-27T12:12:38.249Z,61.10
2018-05-27T12:15:06.525Z,59.90
2018-05-27T12:17:35.329Z,61.60
2018-05-27T12:20:03.459Z,61.80
2018-05-27T12:22:31.595Z,57.10
2018-05-27T12:24:59.519Z,57.70
2018-05-27T12:27:29.267Z,57.70
2018-05-27T12:29:57.345Z,57.10
2018-05-27T12:32:25.411Z,59.50
2018-05-27T12:34:54.576Z,57.40
2018-05-27T12:37:24.337Z,56.90
2018-05-27T12:39:52.651Z,57.90
2018-05-27T12:42:20.186Z,57.80
2018-05-27T12:44:47.796Z,57.80
2018-05-27T12:47:15.319Z,57.00
2018-05-27T12:49:43.590Z,53.70
2018-05-27T12:52:11.885Z,55.60
2018-05-27T12:54:39.389Z,55.40
2018-05-27T12:57:06.917Z,53.60
2018-05-27T12:59:34.423Z,54.50
2018-05-27T13:02:02.737Z,54.10
2018-05-27T13:04:30.247Z,54.10
2018-05-27T13:06:57.769Z,52.70
2018-05-27T13:09:26.045Z,53.60
2018-05-27T13:11:53.575Z,53.60
2018-05-27T13:14:21.082Z,55.10
2018-05-27T13:16:48.851Z,53.30
2018-05-27T13:19:16.134Z,52.90
2018-05-27T13:21:43.660Z,53.00
2018-05-27T13:24:11.165Z,52.80
2018-05-27T13:26:38.680Z,54.30
2018-05-27T13:29:06.987Z,51.80
2018-05-27T13:31:34.494Z,51.70
2018-05-27T13:34:02.025Z,50.90
2018-05-27T13:36:29.532Z,51.20
2018-05-27T13:38:57.066Z,52.20
2018-05-27T13:41:25.125Z,52.30
2018-05-27T13:43:52.649Z,51.40
2018-05-27T13:46:20.154Z,50.00
2018-05-27T13:48:48.454Z,52.10
2018-05-27T13:51:15.962Z,52.10
2018-05-27T13:53:43.494Z,50.40
2018-05-27T13:56:11.006Z,50.10
2018-05-27T13:58:39.305Z,50.30
2018-05-27T14:01:06.806Z,50.30
2018-05-27T14:03:34.333Z,52.80
2018-05-27T14:06:01.849Z,50.60
2018-05-27T14:08:30.145Z,49.00
2018-05-27T14:10:57.662Z,49.00
2018-05-27T14:13:25.191Z,49.90
2018-05-27T14:15:52.700Z,49.40
2018-05-27T14:18:20.230Z,51.00
2018-05-27T14:20:47.742Z,51.60
2018-05-27T14:23:15.278Z,53.50
2018-05-27T14:25:42.786Z,52.60
2018-05-27T14:28:10.513Z,56.60
2018-05-27T14:30:38.017Z,55.30
2018-05-27T14:33:06.313Z,54.20
2018-05-27T14:35:33.858Z,53.90
2018-05-27T14:38:02.150Z,55.10
2018-05-27T14:40:29.657Z,55.00
2018-05-27T14:42:57.181Z,56.20
2018-05-27T14:45:24.685Z,55.50
2018-05-27T14:47:52.210Z,55.00
2018-05-27T14:50:19.749Z,54.40
2018-05-27T14:52:47.286Z,56.70
2018-05-27T14:55:14.798Z,54.90
2018-05-27T14:57:42.325Z,56.00
2018-05-27T15:00:09.833Z,57.80
2018-05-27T15:02:38.131Z,57.50
2018-05-27T15:05:05.638Z,57.70
2018-05-27T15:07:33.166Z,57.30
2018-05-27T15:10:00.710Z,57.00
2018-05-27T15:12:28.238Z,57.70
2018-05-27T15:14:56.512Z,58.50
2018-05-27T15:17:24.806Z,60.00
2018-05-27T15:19:52.318Z,59.90
2018-05-27T15:22:19.846Z,60.70
2018-05-27T15:24:47.358Z,59.20
2018-05-27T15:27:14.913Z,59.40
2018-05-27T15:29:43.186Z,60.30
2018-05-27T15:32:11.498Z,59.90
2018-05-27T15:34:39.037Z,59.90
2018-05-27T15:37:06.561Z,59.70
2018-05-27T15:39:34.090Z,60.60
2018-05-27T15:42:01.594Z,61.20
2018-05-27T15:44:29.126Z,59.00
2018-05-27T15:46:56.629Z,58.60
2018-05-27T15:49:24.172Z,58.40
2018-05-27T15:51:51.683Z,60.70
2018-05-27T15:54:19.235Z,63.70
2018-05-27T15:56:46.750Z,62.20
2018-05-27T15:59:14.285Z,63.50
2018-05-27T16:01:41.801Z,65.60
2018-05-27T16:04:09.335Z,63.50
2018-05-27T16:06:36.839Z,64.40
2018-05-27T16:09:05.932Z,67.90
2018-05-27T16:11:34.233Z,66.80
2018-05-27T16:14:01.772Z,66.80
2018-05-27T16:16:30.046Z,66.20
2018-05-27T16:18:58.342Z,66.50
2018-05-27T16:21:25.854Z,66.50
2018-05-27T16:23:53.382Z,68.50
2018-05-27T16:26:20.890Z,68.40
2018-05-27T16:28:49.198Z,68.50
2018-05-27T16:31:16.706Z,68.50
2018-05-27T16:33:44.998Z,66.30
2018-05-27T16:36:12.504Z,66.30
2018-05-27T16:38:40.034Z,65.80
2018-05-27T16:41:07.738Z,65.50
2018-05-27T16:43:35.261Z,67.50
2018-05-27T16:46:02.782Z,68.00
2018-05-27T16:48:30.318Z,67.90
2018-05-27T16:50:57.818Z,68.40
2018-05-27T16:53:25.346Z,69.60
2018-05-27T16:55:53.686Z,72.80
2018-05-27T16:58:21.209Z,72.60
2018-05-27T17:00:48.942Z,69.50
2018-05-27T17:03:16.469Z,70.20
2018-05-27T17:05:43.979Z,71.30
2018-05-27T17:08:11.506Z,72.40
2018-05-27T17:10:39.774Z,74.10
2018-05-27T17:13:08.074Z,73.90
2018-05-27T17:15:35.601Z,73.80
2018-05-27T17:18:03.898Z,73.00
2018-05-27T17:20:31.406Z,73.00
2018-05-27T17:22:58.933Z,73.80
2018-05-27T17:25:26.443Z,73.80
2018-05-27T17:27:54.779Z,72.90
2018-05-27T17:30:22.265Z,72.80
2018-05-27T17:32:49.796Z,73.10
2018-05-27T17:35:18.070Z,75.30
2018-05-27T17:37:45.606Z,76.00
2018-05-27T17:40:13.114Z,75.40
2018-05-27T17:42:41.377Z,76.90
2018-05-27T17:45:08.901Z,76.80
2018-05-27T17:47:36.406Z,77.60
2018-05-27T17:50:04.699Z,78.50
2018-05-27T17:52:32.201Z,78.40
2018-05-27T17:54:59.729Z,79.30
2018-05-27T17:57:27.242Z,79.80
2018-05-27T17:59:55.541Z,84.20
2018-05-27T18:02:23.054Z,84.00
2018-05-27T18:04:50.577Z,85.20
2018-05-27T18:07:18.082Z,87.70
2018-05-27T18:09:46.406Z,90.40
2018-05-27T18:12:13.899Z,90.40
2018-05-27T18:14:41.450Z,90.90
2018-05-27T18:17:08.968Z,91.70
2018-05-27T18:19:36.498Z,92.80
2018-05-27T18:22:04.768Z,93.60
2018-05-27T18:24:33.062Z,94.20
2018-05-27T18:27:00.573Z,94.20
2018-05-27T18:29:28.105Z,94.90
2018-05-27T18:31:55.609Z,95.10
2018-05-27T18:34:23.901Z,96.20
2018-05-27T18:36:51.410Z,96.20
2018-05-27T18:39:19.027Z,96.70
2018-05-27T18:41:46.547Z,97.40
2018-05-27T18:44:14.838Z,98.00
2018-05-27T18:46:42.354Z,97.90
2018-05-27T18:49:09.877Z,98.20
2018-05-27T18:51:37.782Z,98.90
2018-05-27T18:54:05.937Z,99.00
2018-05-27T18:56:33.875Z,99.10
2018-05-27T18:59:02.156Z,99.50
2018-05-27T19:01:30.094Z,99.90
2018-05-27T19:03:58.268Z,99.90
2018-05-27T19:06:26.594Z,99.40
2018-05-27T19:08:55.132Z,99.60
2018-05-27T19:11:24.358Z,99.20
2018-05-27T19:13:53.350Z,99.40
2018-05-27T19:16:21.455Z,99.40
2018-05-27T19:18:49.801Z,99.70
2018-05-27T19:21:18.654Z,99.90
2018-05-27T19:23:47.138Z,99.90
2018-05-27T19:26:14.638Z,99.90
2018-05-27T19:28:42.175Z,99.90
2018-05-27T19:31:09.679Z,99.90
2018-05-27T19:33:37.254Z,99.90
2018-05-27T19:36:04.769Z,99.90
2018-05-27T19:38:32.302Z,99.90
2018-05-27T19:40:59.801Z,99.90
2018-05-27T19:43:28.141Z,99.90
2018-05-27T19:45:55.618Z,99.90
2018-05-27T19:48:23.919Z,99.90
2018-05-27T19:50:51.521Z,99.90
2018-05-27T19:53:19.055Z,99.90
2018-05-27T19:55:46.584Z,99.90
2018-05-27T19:58:14.127Z,99.90
2018-05-27T20:00:42.433Z,99.90
2018-05-27T20:03:09.945Z,99.90
2018-05-27T20:05:37.477Z,99.90
2018-05-27T20:08:04.979Z,99.90
2018-05-27T20:10:32.515Z,99.90
2018-05-27T20:13:00.786Z,99.90
2018-05-27T20:15:29.096Z,99.90
2018-05-27T20:17:56.602Z,99.90
2018-05-27T20:20:24.131Z,99.90
2018-05-27T20:22:51.637Z,99.90
2018-05-27T20:25:19.189Z,99.90
2018-05-27T20:27:47.457Z,99.90
2018-05-27T20:30:14.990Z,99.90
2018-05-27T20:32:42.498Z,99.90
2018-05-27T20:35:10.030Z,99.90
2018-05-27T20:37:38.305Z,99.90
2018-05-27T20:40:06.603Z,99.90
2018-05-27T20:42:34.113Z,99.90
2018-05-27T20:45:01.683Z,99.90
2018-05-27T20:47:29.938Z,99.90
2018-05-27T20:49:57.518Z,99.90
2018-05-27T20:52:24.991Z,99.90
2018-05-27T20:54:53.286Z,99.90
2018-05-27T20:57:20.794Z,99.90
2018-05-27T20:59:48.314Z,99.90
2018-05-27T21:02:15.826Z,99.90
2018-05-27T21:04:44.124Z,99.90
2018-05-27T21:07:11.650Z,99.90
2018-05-27T21:09:39.949Z,99.90
2018-05-27T21:12:07.466Z,99.90
2018-05-27T21:14:35.005Z,99.90
2018-05-27T21:17:02.519Z,99.90
2018-05-27T21:19:30.054Z,99.90
2018-05-27T21:21:58.325Z,99.90
2018-05-27T21:24:26.625Z,99.90
2018-05-27T21:26:54.130Z,99.90
2018-05-27T21:29:21.670Z,99.90
2018-05-27T21:31:49.195Z,99.90
2018-05-27T21:34:16.725Z,99.90
2018-05-27T21:36:44.998Z,99.90
2018-05-27T21:39:13.293Z,99.90
2018-05-27T21:41:40.799Z,99.90
2018-05-27T21:44:08.325Z,99.90
2018-05-27T21:46:35.833Z,99.90
2018-05-27T21:49:03.370Z,99.90
2018-05-27T21:51:30.882Z,99.90
2018-05-27T21:53:58.405Z,99.90
2018-05-27T21:56:26.682Z,99.90
2018-05-27T21:58:54.973Z,99.90
2018-05-27T22:01:22.536Z,99.90
2018-05-27T22:03:50.111Z,99.90
2018-05-27T22:06:17.621Z,99.90
2018-05-27T22:08:45.922Z,99.90
2018-05-27T22:11:13.425Z,99.90
2018-05-27T22:13:40.929Z,99.90
2018-05-27T22:16:08.462Z,99.90
2018-05-27T22:18:36.609Z,99.90
2018-05-27T22:21:04.138Z,99.90
2018-05-27T22:23:31.642Z,99.90
2018-05-27T22:25:59.957Z,99.90
2018-05-27T22:28:27.830Z,99.90
2018-05-27T22:30:55.367Z,99.90
2018-05-27T22:33:22.889Z,99.90
2018-05-27T22:35:50.417Z,99.90
2018-05-27T22:38:17.917Z,99.90
2018-05-27T22:40:46.210Z,99.90
2018-05-27T22:43:13.718Z,99.90
2018-05-27T22:45:41.261Z,99.90
2018-05-27T22:48:08.773Z,99.90
2018-05-27T22:50:36.302Z,99.90
2018-05-27T22:53:03.815Z,99.90
2018-05-27T22:55:31.347Z,99.90
2018-05-27T22:57:59.718Z,99.90
2018-05-27T23:00:27.246Z,99.90
2018-05-27T23:02:54.750Z,99.90
2018-05-27T23:05:22.273Z,99.90
2018-05-27T23:07:50.550Z,99.90
2018-05-27T23:10:18.842Z,99.90
2018-05-27T23:12:46.349Z,99.90
2018-05-27T23:15:13.975Z,99.90
2018-05-27T23:17:41.480Z,99.90
2018-05-27T23:20:09.794Z,99.90
2018-05-27T23:22:37.301Z,99.90
2018-05-27T23:25:04.832Z,99.90
2018-05-27T23:27:33.105Z,99.90
2018-05-27T23:30:00.665Z,99.90
2018-05-27T23:32:28.930Z,99.90
2018-05-27T23:34:56.458Z,99.90
2018-05-27T23:37:23.968Z,99.90
2018-05-27T23:39:51.497Z,99.90
2018-05-27T23:42:19.003Z,99.90
2018-05-27T23:44:47.295Z,99.90
2018-05-27T23:47:14.811Z,99.90
2018-05-27T23:49:42.340Z,99.90
2018-05-27T23:52:09.853Z,99.90
2018-05-27T23:54:38.148Z,99.90
2018-05-27T23:57:05.649Z,99.90
2018-05-27T23:59:33.182Z,99.90
